sensor_id;sensor_type;location;lat;lon;timestamp;pressure;altitude;pressure_sealevel;temperature;humidity
76108;BME280;64834;52.516;10.528;2022-11-03T00:01:49;101314.75;;;4.52;81.80
76108;BME280;64834;52.516;10.528;2022-11-03T00:04:21;101321.03;;;4.64;81.94
76108;BME280;64834;52.516;10.528;2022-11-03T00:06:49;101316.00;;;4.66;81.56
76108;BME280;64834;52.516;10.528;2022-11-03T00:09:17;101318.94;;;4.60;81.64
76108;BME280;64834;52.516;10.528;2022-11-03T00:11:44;101323.66;;;4.45;82.10
76108;BME280;64834;52.516;10.528;2022-11-03T00:14:10;101323.41;;;4.52;81.96
76108;BME280;64834;52.516;10.528;2022-11-03T00:16:37;101322.63;;;4.43;81.90
76108;BME280;64834;52.516;10.528;2022-11-03T00:19:03;101318.16;;;4.32;81.74
76108;BME280;64834;52.516;10.528;2022-11-03T00:21:28;101315.97;;;4.37;82.06
76108;BME280;64834;52.516;10.528;2022-11-03T00:23:54;101305.13;;;4.41;82.03
76108;BME280;64834;52.516;10.528;2022-11-03T00:26:22;101310.56;;;4.44;81.60
76108;BME280;64834;52.516;10.528;2022-11-03T00:28:49;101299.22;;;4.91;80.50
76108;BME280;64834;52.516;10.528;2022-11-03T00:33:45;101295.56;;;4.50;81.84
76108;BME280;64834;52.516;10.528;2022-11-03T00:36:13;101293.00;;;4.31;82.83
76108;BME280;64834;52.516;10.528;2022-11-03T00:38:38;101297.66;;;4.25;83.98
76108;BME280;64834;52.516;10.528;2022-11-03T00:41:05;101289.78;;;4.63;82.10
76108;BME280;64834;52.516;10.528;2022-11-03T00:43:33;101279.88;;;4.48;82.40
76108;BME280;64834;52.516;10.528;2022-11-03T00:45:58;101283.06;;;4.36;83.54
76108;BME280;64834;52.516;10.528;2022-11-03T00:48:24;101283.66;;;4.23;83.94
76108;BME280;64834;52.516;10.528;2022-11-03T00:51:13;101287.75;;;4.21;84.26
76108;BME280;64834;52.516;10.528;2022-11-03T00:53:41;101285.47;;;4.24;84.08
76108;BME280;64834;52.516;10.528;2022-11-03T00:56:09;101291.09;;;4.39;82.60
76108;BME280;64834;52.516;10.528;2022-11-03T00:58:35;101288.22;;;4.65;82.63
76108;BME280;64834;52.516;10.528;2022-11-03T01:01:03;101290.81;;;4.54;82.83
76108;BME280;64834;52.516;10.528;2022-11-03T01:03:31;101282.84;;;4.43;84.01
76108;BME280;64834;52.516;10.528;2022-11-03T01:05:57;101277.44;;;4.50;83.38
76108;BME280;64834;52.516;10.528;2022-11-03T01:08:40;101279.00;;;4.58;83.15
76108;BME280;64834;52.516;10.528;2022-11-03T01:11:08;101289.00;;;4.64;83.02
76108;BME280;64834;52.516;10.528;2022-11-03T01:13:53;101282.34;;;4.86;82.55
76108;BME280;64834;52.516;10.528;2022-11-03T01:16:18;101281.09;;;5.01;81.73
76108;BME280;64834;52.516;10.528;2022-11-03T01:18:44;101278.84;;;4.85;82.25
76108;BME280;64834;52.516;10.528;2022-11-03T01:21:09;101277.94;;;4.85;82.05
76108;BME280;64834;52.516;10.528;2022-11-03T01:23:34;101277.78;;;4.83;82.32
76108;BME280;64834;52.516;10.528;2022-11-03T01:26:07;101278.19;;;4.78;82.67
76108;BME280;64834;52.516;10.528;2022-11-03T01:28:34;101273.91;;;4.78;82.59
76108;BME280;64834;52.516;10.528;2022-11-03T01:31:07;101270.41;;;4.88;82.73
76108;BME280;64834;52.516;10.528;2022-11-03T01:33:33;101263.00;;;4.82;82.69
76108;BME280;64834;52.516;10.528;2022-11-03T01:35:59;101261.81;;;4.69;83.72
76108;BME280;64834;52.516;10.528;2022-11-03T01:38:24;101260.28;;;4.81;82.87
76108;BME280;64834;52.516;10.528;2022-11-03T01:40:50;101259.03;;;4.96;82.78
76108;BME280;64834;52.516;10.528;2022-11-03T01:43:17;101249.19;;;5.02;82.60
76108;BME280;64834;52.516;10.528;2022-11-03T01:45:44;101245.28;;;4.87;82.61
76108;BME280;64834;52.516;10.528;2022-11-03T01:48:11;101250.22;;;4.84;83.22
76108;BME280;64834;52.516;10.528;2022-11-03T01:50:37;101238.28;;;4.96;83.05
76108;BME280;64834;52.516;10.528;2022-11-03T01:53:04;101238.81;;;5.12;83.00
76108;BME280;64834;52.516;10.528;2022-11-03T01:55:33;101227.66;;;5.13;82.52
76108;BME280;64834;52.516;10.528;2022-11-03T01:58:06;101235.47;;;5.24;82.56
76108;BME280;64834;52.516;10.528;2022-11-03T02:00:34;101230.28;;;5.24;82.34
76108;BME280;64834;52.516;10.528;2022-11-03T02:03:00;101219.38;;;5.18;82.87
76108;BME280;64834;52.516;10.528;2022-11-03T02:05:26;101220.13;;;4.96;83.13
76108;BME280;64834;52.516;10.528;2022-11-03T02:07:56;101216.09;;;4.90;83.15
76108;BME280;64834;52.516;10.528;2022-11-03T02:10:23;101212.22;;;5.15;83.32
76108;BME280;64834;52.516;10.528;2022-11-03T02:12:49;101208.97;;;5.28;82.81
76108;BME280;64834;52.516;10.528;2022-11-03T02:15:15;101202.25;;;5.20;82.99
76108;BME280;64834;52.516;10.528;2022-11-03T02:17:45;101210.94;;;5.10;82.97
76108;BME280;64834;52.516;10.528;2022-11-03T02:20:16;101207.28;;;5.08;82.82
76108;BME280;64834;52.516;10.528;2022-11-03T02:23:14;101192.66;;;5.19;82.87
76108;BME280;64834;52.516;10.528;2022-11-03T02:28:11;101185.00;;;5.10;83.26
76108;BME280;64834;52.516;10.528;2022-11-03T02:30:42;101178.13;;;5.00;83.05
76108;BME280;64834;52.516;10.528;2022-11-03T02:38:46;101158.00;;;5.38;82.09
76108;BME280;64834;52.516;10.528;2022-11-03T02:41:14;101163.81;;;5.46;81.66
76108;BME280;64834;52.516;10.528;2022-11-03T02:43:43;101165.91;;;5.50;81.75
76108;BME280;64834;52.516;10.528;2022-11-03T02:46:10;101166.56;;;5.37;81.76
76108;BME280;64834;52.516;10.528;2022-11-03T02:48:36;101159.69;;;5.28;81.89
76108;BME280;64834;52.516;10.528;2022-11-03T02:51:02;101163.88;;;5.16;82.81
76108;BME280;64834;52.516;10.528;2022-11-03T02:53:29;101172.94;;;5.41;81.61
76108;BME280;64834;52.516;10.528;2022-11-03T02:56:01;101158.38;;;5.53;81.30
76108;BME280;64834;52.516;10.528;2022-11-03T03:01:15;101157.22;;;5.50;81.42
76108;BME280;64834;52.516;10.528;2022-11-03T03:03:54;101153.81;;;5.51;81.60
76108;BME280;64834;52.516;10.528;2022-11-03T03:06:25;101159.56;;;5.36;81.80
76108;BME280;64834;52.516;10.528;2022-11-03T03:08:55;101153.81;;;5.51;81.33
76108;BME280;64834;52.516;10.528;2022-11-03T03:11:23;101142.25;;;5.57;81.20
76108;BME280;64834;52.516;10.528;2022-11-03T03:14:15;101138.91;;;5.48;81.61
76108;BME280;64834;52.516;10.528;2022-11-03T03:19:25;101133.56;;;5.47;81.69
76108;BME280;64834;52.516;10.528;2022-11-03T03:21:52;101136.84;;;5.44;81.48
76108;BME280;64834;52.516;10.528;2022-11-03T03:27:19;101128.81;;;5.41;81.71
76108;BME280;64834;52.516;10.528;2022-11-03T03:30:00;101130.34;;;5.39;81.58
76108;BME280;64834;52.516;10.528;2022-11-03T03:32:30;101127.63;;;5.48;82.07
76108;BME280;64834;52.516;10.528;2022-11-03T03:34:58;101127.88;;;5.40;82.00
76108;BME280;64834;52.516;10.528;2022-11-03T03:37:25;101116.69;;;5.52;81.39
76108;BME280;64834;52.516;10.528;2022-11-03T03:39:55;101106.09;;;5.49;81.48
76108;BME280;64834;52.516;10.528;2022-11-03T03:42:24;101113.19;;;5.61;81.56
76108;BME280;64834;52.516;10.528;2022-11-03T03:44:52;101103.31;;;5.57;81.29
76108;BME280;64834;52.516;10.528;2022-11-03T03:47:24;101101.50;;;5.66;81.16
76108;BME280;64834;52.516;10.528;2022-11-03T03:49:51;101094.91;;;5.60;81.33
76108;BME280;64834;52.516;10.528;2022-11-03T03:52:17;101098.41;;;5.60;81.20
76108;BME280;64834;52.516;10.528;2022-11-03T03:54:43;101095.25;;;5.64;81.39
76108;BME280;64834;52.516;10.528;2022-11-03T03:57:14;101085.03;;;5.56;81.76
76108;BME280;64834;52.516;10.528;2022-11-03T03:59:43;101083.88;;;5.52;81.52
76108;BME280;64834;52.516;10.528;2022-11-03T04:02:10;101081.94;;;5.50;82.00
76108;BME280;64834;52.516;10.528;2022-11-03T04:04:35;101082.66;;;5.69;81.25
76108;BME280;64834;52.516;10.528;2022-11-03T04:07:00;101078.25;;;5.68;81.83
76108;BME280;64834;52.516;10.528;2022-11-03T04:09:44;101080.72;;;5.66;81.50
76108;BME280;64834;52.516;10.528;2022-11-03T04:12:10;101074.84;;;5.69;81.78
76108;BME280;64834;52.516;10.528;2022-11-03T04:14:53;101071.25;;;5.67;81.50
76108;BME280;64834;52.516;10.528;2022-11-03T04:17:42;101064.25;;;5.66;81.84
76108;BME280;64834;52.516;10.528;2022-11-03T04:20:27;101062.38;;;5.43;82.90
76108;BME280;64834;52.516;10.528;2022-11-03T04:23:11;101062.16;;;5.30;83.08
76108;BME280;64834;52.516;10.528;2022-11-03T04:25:36;101062.66;;;5.26;83.40
76108;BME280;64834;52.516;10.528;2022-11-03T04:28:08;101052.84;;;5.22;83.89
76108;BME280;64834;52.516;10.528;2022-11-03T04:30:34;101047.78;;;5.55;82.60
76108;BME280;64834;52.516;10.528;2022-11-03T04:33:00;101045.69;;;5.29;82.92
76108;BME280;64834;52.516;10.528;2022-11-03T04:35:26;101044.84;;;5.40;82.57
76108;BME280;64834;52.516;10.528;2022-11-03T04:38:08;101046.06;;;5.24;83.19
76108;BME280;64834;52.516;10.528;2022-11-03T04:40:48;101041.63;;;5.33;83.16
76108;BME280;64834;52.516;10.528;2022-11-03T04:43:17;101037.19;;;5.42;82.40
76108;BME280;64834;52.516;10.528;2022-11-03T04:45:44;101030.94;;;5.40;82.32
76108;BME280;64834;52.516;10.528;2022-11-03T04:48:14;101028.25;;;5.38;82.84
76108;BME280;64834;52.516;10.528;2022-11-03T04:50:40;101023.97;;;5.39;82.24
76108;BME280;64834;52.516;10.528;2022-11-03T04:53:13;101017.47;;;5.44;82.43
76108;BME280;64834;52.516;10.528;2022-11-03T04:55:40;101016.03;;;5.48;82.18
76108;BME280;64834;52.516;10.528;2022-11-03T04:58:26;101016.84;;;5.36;82.22
76108;BME280;64834;52.516;10.528;2022-11-03T05:00:55;101012.66;;;5.38;82.61
76108;BME280;64834;52.516;10.528;2022-11-03T05:03:34;101025.19;;;5.22;83.02
76108;BME280;64834;52.516;10.528;2022-11-03T05:06:07;101012.25;;;5.44;82.01
76108;BME280;64834;52.516;10.528;2022-11-03T05:08:33;101011.78;;;5.28;82.58
76108;BME280;64834;52.516;10.528;2022-11-03T05:10:59;101011.38;;;5.33;82.44
76108;BME280;64834;52.516;10.528;2022-11-03T05:13:26;101007.72;;;5.09;82.91
76108;BME280;64834;52.516;10.528;2022-11-03T05:15:53;101007.75;;;4.99;83.48
76108;BME280;64834;52.516;10.528;2022-11-03T05:18:28;101007.06;;;5.02;83.76
76108;BME280;64834;52.516;10.528;2022-11-03T05:21:00;101007.75;;;4.89;84.19
76108;BME280;64834;52.516;10.528;2022-11-03T05:23:29;101003.56;;;5.01;84.02
76108;BME280;64834;52.516;10.528;2022-11-03T05:25:56;101003.44;;;5.10;83.73
76108;BME280;64834;52.516;10.528;2022-11-03T05:28:40;101002.19;;;5.27;83.50
76108;BME280;64834;52.516;10.528;2022-11-03T05:31:21;101000.16;;;5.23;83.23
76108;BME280;64834;52.516;10.528;2022-11-03T05:33:47;101000.06;;;5.43;83.13
76108;BME280;64834;52.516;10.528;2022-11-03T05:36:19;100999.34;;;5.66;82.13
76108;BME280;64834;52.516;10.528;2022-11-03T05:38:46;100994.44;;;5.81;81.60
76108;BME280;64834;52.516;10.528;2022-11-03T05:41:19;101004.31;;;5.85;81.88
76108;BME280;64834;52.516;10.528;2022-11-03T05:44:01;100987.22;;;5.99;81.59
76108;BME280;64834;52.516;10.528;2022-11-03T05:46:28;100989.41;;;6.04;81.53
76108;BME280;64834;52.516;10.528;2022-11-03T05:48:54;100993.13;;;6.08;81.38
76108;BME280;64834;52.516;10.528;2022-11-03T05:51:30;100987.41;;;6.12;81.56
76108;BME280;64834;52.516;10.528;2022-11-03T05:54:00;100981.19;;;6.21;81.35
76108;BME280;64834;52.516;10.528;2022-11-03T05:56:26;100972.50;;;6.21;81.13
76108;BME280;64834;52.516;10.528;2022-11-03T05:58:54;100980.28;;;6.21;81.24
76108;BME280;64834;52.516;10.528;2022-11-03T06:01:34;100984.38;;;6.17;81.56
76108;BME280;64834;52.516;10.528;2022-11-03T06:04:28;100985.97;;;6.27;81.49
76108;BME280;64834;52.516;10.528;2022-11-03T06:07:02;100978.59;;;6.21;81.47
76108;BME280;64834;52.516;10.528;2022-11-03T06:09:28;100977.94;;;6.24;81.45
76108;BME280;64834;52.516;10.528;2022-11-03T06:11:57;100982.00;;;6.20;81.66
76108;BME280;64834;52.516;10.528;2022-11-03T06:14:26;100986.19;;;6.18;81.65
76108;BME280;64834;52.516;10.528;2022-11-03T06:16:55;100971.72;;;6.22;81.39
76108;BME280;64834;52.516;10.528;2022-11-03T06:19:28;100984.84;;;6.24;81.89
76108;BME280;64834;52.516;10.528;2022-11-03T06:22:02;100979.78;;;6.37;81.21
76108;BME280;64834;52.516;10.528;2022-11-03T06:24:31;100977.75;;;6.33;81.43
76108;BME280;64834;52.516;10.528;2022-11-03T06:26:58;100973.69;;;6.36;81.11
76108;BME280;64834;52.516;10.528;2022-11-03T06:29:23;100975.63;;;6.39;81.18
76108;BME280;64834;52.516;10.528;2022-11-03T06:31:52;100975.50;;;6.37;80.95
76108;BME280;64834;52.516;10.528;2022-11-03T06:34:29;100973.13;;;6.40;81.44
76108;BME280;64834;52.516;10.528;2022-11-03T06:36:58;100973.16;;;6.52;81.03
76108;BME280;64834;52.516;10.528;2022-11-03T06:39:23;100968.06;;;6.54;81.01
76108;BME280;64834;52.516;10.528;2022-11-03T06:41:49;100975.34;;;6.69;80.26
76108;BME280;64834;52.516;10.528;2022-11-03T06:44:22;100967.75;;;6.72;80.60
76108;BME280;64834;52.516;10.528;2022-11-03T06:46:48;100973.09;;;6.86;79.92
76108;BME280;64834;52.516;10.528;2022-11-03T06:49:26;100965.31;;;6.86;80.03
76108;BME280;64834;52.516;10.528;2022-11-03T06:51:54;100959.97;;;7.08;79.29
76108;BME280;64834;52.516;10.528;2022-11-03T06:54:19;100957.81;;;7.37;78.40
76108;BME280;64834;52.516;10.528;2022-11-03T06:56:44;100962.38;;;7.65;76.97
76108;BME280;64834;52.516;10.528;2022-11-03T06:59:12;100959.84;;;7.78;76.41
76108;BME280;64834;52.516;10.528;2022-11-03T07:01:38;100960.88;;;7.80;76.51
76108;BME280;64834;52.516;10.528;2022-11-03T07:04:24;100957.72;;;7.97;75.93
76108;BME280;64834;52.516;10.528;2022-11-03T07:06:59;100959.66;;;8.00;75.99
76108;BME280;64834;52.516;10.528;2022-11-03T07:09:25;100953.78;;;7.91;76.22
76108;BME280;64834;52.516;10.528;2022-11-03T07:11:57;100949.28;;;7.88;76.57
76108;BME280;64834;52.516;10.528;2022-11-03T07:14:26;100948.53;;;7.77;77.45
76108;BME280;64834;52.516;10.528;2022-11-03T07:16:58;100946.19;;;7.69;77.51
76108;BME280;64834;52.516;10.528;2022-11-03T07:19:31;100947.28;;;7.72;77.99
76108;BME280;64834;52.516;10.528;2022-11-03T07:22:00;100949.13;;;7.73;77.75
76108;BME280;64834;52.516;10.528;2022-11-03T07:29:40;100942.13;;;7.85;77.01
76108;BME280;64834;52.516;10.528;2022-11-03T07:32:15;100931.84;;;7.87;76.97
76108;BME280;64834;52.516;10.528;2022-11-03T07:34:42;100936.59;;;7.93;76.57
76108;BME280;64834;52.516;10.528;2022-11-03T07:37:13;100933.28;;;7.95;76.75
76108;BME280;64834;52.516;10.528;2022-11-03T07:39:40;100937.31;;;8.03;76.69
76108;BME280;64834;52.516;10.528;2022-11-03T07:42:20;100930.81;;;8.10;76.61
76108;BME280;64834;52.516;10.528;2022-11-03T07:44:47;100921.63;;;8.15;76.29
76108;BME280;64834;52.516;10.528;2022-11-03T07:47:15;100921.19;;;8.09;76.88
76108;BME280;64834;52.516;10.528;2022-11-03T07:49:43;100922.22;;;8.11;76.66
76108;BME280;64834;52.516;10.528;2022-11-03T07:52:11;100926.84;;;8.15;76.95
76108;BME280;64834;52.516;10.528;2022-11-03T07:54:38;100917.31;;;8.16;76.53
76108;BME280;64834;52.516;10.528;2022-11-03T07:57:27;100912.59;;;8.23;76.91
76108;BME280;64834;52.516;10.528;2022-11-03T08:00:04;100902.50;;;8.28;76.27
76108;BME280;64834;52.516;10.528;2022-11-03T08:02:36;100898.31;;;8.30;76.31
76108;BME280;64834;52.516;10.528;2022-11-03T08:05:04;100891.59;;;8.33;76.38
76108;BME280;64834;52.516;10.528;2022-11-03T08:07:30;100885.72;;;8.36;76.40
76108;BME280;64834;52.516;10.528;2022-11-03T08:09:55;100880.72;;;8.39;77.02
76108;BME280;64834;52.516;10.528;2022-11-03T08:12:21;100869.38;;;8.52;76.16
76108;BME280;64834;52.516;10.528;2022-11-03T08:14:46;100874.19;;;8.59;76.15
76108;BME280;64834;52.516;10.528;2022-11-03T08:17:11;100872.09;;;8.67;76.09
76108;BME280;64834;52.516;10.528;2022-11-03T08:19:38;100864.06;;;8.77;76.19
76108;BME280;64834;52.516;10.528;2022-11-03T08:22:03;100845.88;;;8.91;75.89
76108;BME280;64834;52.516;10.528;2022-11-03T08:24:28;100853.22;;;8.97;75.60
76108;BME280;64834;52.516;10.528;2022-11-03T08:26:54;100843.69;;;8.98;75.28
76108;BME280;64834;52.516;10.528;2022-11-03T08:29:19;100846.28;;;8.98;75.62
76108;BME280;64834;52.516;10.528;2022-11-03T08:31:45;100840.25;;;9.12;75.14
76108;BME280;64834;52.516;10.528;2022-11-03T08:34:11;100832.91;;;9.19;75.64
76108;BME280;64834;52.516;10.528;2022-11-03T08:36:36;100838.09;;;9.33;75.41
76108;BME280;64834;52.516;10.528;2022-11-03T08:39:02;100837.66;;;9.40;74.20
76108;BME280;64834;52.516;10.528;2022-11-03T08:41:28;100836.25;;;9.45;74.00
76108;BME280;64834;52.516;10.528;2022-11-03T08:43:53;100826.47;;;9.56;74.17
76108;BME280;64834;52.516;10.528;2022-11-03T08:46:19;100819.41;;;9.55;74.15
76108;BME280;64834;52.516;10.528;2022-11-03T08:48:44;100824.59;;;9.68;74.26
76108;BME280;64834;52.516;10.528;2022-11-03T08:51:10;100819.72;;;9.74;73.37
76108;BME280;64834;52.516;10.528;2022-11-03T08:53:38;100818.28;;;9.79;73.51
76108;BME280;64834;52.516;10.528;2022-11-03T08:56:05;100818.50;;;9.82;73.43
76108;BME280;64834;52.516;10.528;2022-11-03T08:58:31;100818.13;;;9.91;73.23
76108;BME280;64834;52.516;10.528;2022-11-03T09:00:56;100816.09;;;10.00;73.47
76108;BME280;64834;52.516;10.528;2022-11-03T09:03:22;100806.00;;;10.06;72.68
76108;BME280;64834;52.516;10.528;2022-11-03T09:05:47;100798.94;;;10.05;73.16
76108;BME280;64834;52.516;10.528;2022-11-03T09:08:12;100800.47;;;10.16;73.29
76108;BME280;64834;52.516;10.528;2022-11-03T09:10:38;100786.44;;;10.29;72.28
76108;BME280;64834;52.516;10.528;2022-11-03T09:13:03;100785.53;;;10.43;73.08
76108;BME280;64834;52.516;10.528;2022-11-03T09:15:29;100784.25;;;10.51;72.16
76108;BME280;64834;52.516;10.528;2022-11-03T09:17:55;100786.56;;;10.62;71.69
76108;BME280;64834;52.516;10.528;2022-11-03T09:20:21;100779.78;;;10.65;71.40
76108;BME280;64834;52.516;10.528;2022-11-03T09:22:46;100778.91;;;10.65;71.69
76108;BME280;64834;52.516;10.528;2022-11-03T09:25:11;100774.91;;;10.71;72.17
76108;BME280;64834;52.516;10.528;2022-11-03T09:27:37;100774.78;;;10.85;71.06
76108;BME280;64834;52.516;10.528;2022-11-03T09:30:03;100772.00;;;10.82;71.38
76108;BME280;64834;52.516;10.528;2022-11-03T09:32:29;100766.28;;;11.05;71.45
76108;BME280;64834;52.516;10.528;2022-11-03T09:34:55;100766.25;;;11.20;70.93
76108;BME280;64834;52.516;10.528;2022-11-03T09:37:20;100764.03;;;11.27;70.87
76108;BME280;64834;52.516;10.528;2022-11-03T09:39:47;100762.47;;;11.31;69.96
76108;BME280;64834;52.516;10.528;2022-11-03T09:42:13;100765.84;;;11.45;69.82
76108;BME280;64834;52.516;10.528;2022-11-03T09:44:38;100763.13;;;11.59;70.08
76108;BME280;64834;52.516;10.528;2022-11-03T09:47:04;100758.44;;;11.70;69.47
76108;BME280;64834;52.516;10.528;2022-11-03T09:49:31;100761.06;;;11.70;69.07
76108;BME280;64834;52.516;10.528;2022-11-03T09:51:59;100752.44;;;11.56;69.12
76108;BME280;64834;52.516;10.528;2022-11-03T09:54:26;100752.44;;;11.73;69.29
76108;BME280;64834;52.516;10.528;2022-11-03T09:56:52;100751.13;;;11.81;68.88
76108;BME280;64834;52.516;10.528;2022-11-03T09:59:19;100744.69;;;12.08;67.98
76108;BME280;64834;52.516;10.528;2022-11-03T10:01:46;100736.22;;;12.14;67.73
76108;BME280;64834;52.516;10.528;2022-11-03T10:04:15;100739.28;;;12.23;67.87
76108;BME280;64834;52.516;10.528;2022-11-03T10:06:40;100738.78;;;12.30;67.28
76108;BME280;64834;52.516;10.528;2022-11-03T10:09:11;100735.31;;;12.31;66.59
76108;BME280;64834;52.516;10.528;2022-11-03T10:11:38;100725.28;;;12.23;67.80
76108;BME280;64834;52.516;10.528;2022-11-03T10:14:04;100732.94;;;12.36;67.50
76108;BME280;64834;52.516;10.528;2022-11-03T10:16:31;100733.53;;;12.48;67.67
76108;BME280;64834;52.516;10.528;2022-11-03T10:18:56;100721.28;;;12.66;66.20
76108;BME280;64834;52.516;10.528;2022-11-03T10:21:28;100727.50;;;12.68;66.93
76108;BME280;64834;52.516;10.528;2022-11-03T10:23:54;100722.28;;;13.07;65.57
76108;BME280;64834;52.516;10.528;2022-11-03T10:26:19;100724.56;;;13.37;65.09
76108;BME280;64834;52.516;10.528;2022-11-03T10:29:05;100713.84;;;13.52;64.00
76108;BME280;64834;52.516;10.528;2022-11-03T10:31:37;100713.84;;;13.52;64.17
76108;BME280;64834;52.516;10.528;2022-11-03T10:34:04;100708.97;;;13.61;63.63
76108;BME280;64834;52.516;10.528;2022-11-03T10:36:32;100694.41;;;13.69;63.44
76108;BME280;64834;52.516;10.528;2022-11-03T10:38:58;100692.81;;;13.72;63.34
76108;BME280;64834;52.516;10.528;2022-11-03T10:41:28;100690.09;;;13.90;63.59
76108;BME280;64834;52.516;10.528;2022-11-03T10:46:38;100671.38;;;13.63;63.53
76108;BME280;64834;52.516;10.528;2022-11-03T10:51:34;100635.09;;;13.55;63.97
76108;BME280;64834;52.516;10.528;2022-11-03T10:54:01;100620.63;;;13.45;64.42
76108;BME280;64834;52.516;10.528;2022-11-03T10:56:27;100625.50;;;13.36;65.05
76108;BME280;64834;52.516;10.528;2022-11-03T10:58:53;100645.22;;;13.26;65.31
76108;BME280;64834;52.516;10.528;2022-11-03T11:01:19;100654.38;;;13.34;65.73
76108;BME280;64834;52.516;10.528;2022-11-03T11:03:45;100648.22;;;13.34;65.58
76108;BME280;64834;52.516;10.528;2022-11-03T11:06:40;100629.72;;;13.52;64.93
76108;BME280;64834;52.516;10.528;2022-11-03T11:09:09;100623.63;;;13.53;63.79
76108;BME280;64834;52.516;10.528;2022-11-03T11:11:36;100630.66;;;13.54;64.02
76108;BME280;64834;52.516;10.528;2022-11-03T11:14:20;100622.09;;;13.58;64.39
76108;BME280;64834;52.516;10.528;2022-11-03T11:19:18;100612.91;;;13.69;63.93
76108;BME280;64834;52.516;10.528;2022-11-03T11:24:12;100604.16;;;13.70;63.74
76108;BME280;64834;52.516;10.528;2022-11-03T11:26:38;100605.19;;;13.73;63.98
76108;BME280;64834;52.516;10.528;2022-11-03T11:31:39;100594.41;;;13.88;62.68
76108;BME280;64834;52.516;10.528;2022-11-03T11:36:34;100600.06;;;13.97;62.50
76108;BME280;64834;52.516;10.528;2022-11-03T11:39:00;100584.38;;;14.00;63.25
76108;BME280;64834;52.516;10.528;2022-11-03T11:52:43;100550.50;;;14.08;62.37
76108;BME280;64834;52.516;10.528;2022-11-03T11:55:36;100555.25;;;14.18;62.01
76108;BME280;64834;52.516;10.528;2022-11-03T11:58:03;100545.91;;;14.26;62.01
76108;BME280;64834;52.516;10.528;2022-11-03T12:00:31;100533.34;;;14.19;62.29
76108;BME280;64834;52.516;10.528;2022-11-03T12:02:58;100524.41;;;14.14;61.94
76108;BME280;64834;52.516;10.528;2022-11-03T12:05:27;100515.25;;;14.04;61.77
76108;BME280;64834;52.516;10.528;2022-11-03T12:07:55;100506.56;;;14.07;62.04
76108;BME280;64834;52.516;10.528;2022-11-03T12:10:28;100510.84;;;14.03;61.85
76108;BME280;64834;52.516;10.528;2022-11-03T12:12:56;100506.41;;;14.02;62.97
76108;BME280;64834;52.516;10.528;2022-11-03T12:15:47;100498.75;;;14.09;62.35
76108;BME280;64834;52.516;10.528;2022-11-03T12:18:33;100487.22;;;14.05;61.80
76108;BME280;64834;52.516;10.528;2022-11-03T12:21:00;100490.72;;;14.06;62.16
76108;BME280;64834;52.516;10.528;2022-11-03T12:23:42;100481.72;;;13.99;61.31
76108;BME280;64834;52.516;10.528;2022-11-03T12:26:40;100478.09;;;13.95;62.16
76108;BME280;64834;52.516;10.528;2022-11-03T12:29:06;100472.22;;;14.02;62.02
76108;BME280;64834;52.516;10.528;2022-11-03T12:31:31;100472.59;;;14.13;61.60
76108;BME280;64834;52.516;10.528;2022-11-03T12:33:56;100464.03;;;14.19;61.47
76108;BME280;64834;52.516;10.528;2022-11-03T12:36:22;100463.72;;;14.10;61.16
76108;BME280;64834;52.516;10.528;2022-11-03T12:38:47;100471.72;;;14.13;61.09
76108;BME280;64834;52.516;10.528;2022-11-03T12:41:12;100459.34;;;14.10;61.06
76108;BME280;64834;52.516;10.528;2022-11-03T12:43:49;100452.38;;;14.12;61.71
76108;BME280;64834;52.516;10.528;2022-11-03T12:46:16;100448.69;;;14.07;61.58
76108;BME280;64834;52.516;10.528;2022-11-03T12:48:42;100447.19;;;14.14;61.15
76108;BME280;64834;52.516;10.528;2022-11-03T12:51:12;100438.16;;;14.07;61.11
76108;BME280;64834;52.516;10.528;2022-11-03T12:53:38;100424.97;;;14.06;60.98
76108;BME280;64834;52.516;10.528;2022-11-03T12:56:05;100422.47;;;14.09;61.34
76108;BME280;64834;52.516;10.528;2022-11-03T12:58:30;100407.63;;;14.11;61.43
76108;BME280;64834;52.516;10.528;2022-11-03T13:00:55;100410.91;;;14.05;61.29
76108;BME280;64834;52.516;10.528;2022-11-03T13:03:21;100400.44;;;14.07;60.51
76108;BME280;64834;52.516;10.528;2022-11-03T13:05:46;100396.97;;;14.08;61.32
76108;BME280;64834;52.516;10.528;2022-11-03T13:08:13;100383.66;;;14.03;61.41
76108;BME280;64834;52.516;10.528;2022-11-03T13:10:38;100380.22;;;14.06;62.59
76108;BME280;64834;52.516;10.528;2022-11-03T13:13:05;100371.88;;;13.93;62.89
76108;BME280;64834;52.516;10.528;2022-11-03T13:15:30;100374.56;;;13.95;62.97
76108;BME280;64834;52.516;10.528;2022-11-03T13:17:55;100370.06;;;13.91;63.37
76108;BME280;64834;52.516;10.528;2022-11-03T13:20:21;100369.25;;;13.93;62.85
76108;BME280;64834;52.516;10.528;2022-11-03T13:22:46;100375.38;;;13.92;63.22
76108;BME280;64834;52.516;10.528;2022-11-03T13:25:11;100370.78;;;13.87;63.25
76108;BME280;64834;52.516;10.528;2022-11-03T13:27:37;100359.19;;;13.82;64.06
76108;BME280;64834;52.516;10.528;2022-11-03T13:30:03;100357.44;;;13.82;63.43
76108;BME280;64834;52.516;10.528;2022-11-03T13:32:29;100350.81;;;13.69;63.84
76108;BME280;64834;52.516;10.528;2022-11-03T13:34:54;100345.75;;;13.74;63.33
76108;BME280;64834;52.516;10.528;2022-11-03T13:37:20;100344.00;;;13.74;63.23
76108;BME280;64834;52.516;10.528;2022-11-03T13:39:45;100337.59;;;13.66;64.32
76108;BME280;64834;52.516;10.528;2022-11-03T13:42:10;100341.72;;;13.60;64.43
76108;BME280;64834;52.516;10.528;2022-11-03T13:44:36;100337.22;;;13.57;65.10
76108;BME280;64834;52.516;10.528;2022-11-03T13:47:01;100341.34;;;13.50;66.14